createdAt,value
2022-11-15T00:00:28.419Z,96753.13
2022-11-15T00:02:55.050Z,96755.88
2022-11-15T00:05:21.774Z,96746.03
2022-11-15T00:07:55.497Z,96746.03
2022-11-15T00:10:22.492Z,96741.44
2022-11-15T00:12:49.116Z,96746.03
2022-11-15T00:15:15.731Z,96755.03
2022-11-15T00:17:42.344Z,96751.75
2022-11-15T00:20:09.348Z,96754.22
2022-11-15T00:22:35.974Z,96754.22
2022-11-15T00:25:02.596Z,96749.03
2022-11-15T00:27:29.209Z,96758.84
2022-11-15T00:29:55.831Z,96752.56
2022-11-15T00:32:22.455Z,96742.75
2022-11-15T00:34:49.066Z,96738.13
2022-11-15T00:37:15.671Z,96737.06
2022-11-15T00:39:42.276Z,96733.50
2022-11-15T00:42:08.890Z,96739.78
2022-11-15T00:44:35.502Z,96740.59
2022-11-15T00:47:02.133Z,96740.59
2022-11-15T00:49:28.746Z,96735.16
2022-11-15T00:51:55.381Z,96738.97
2022-11-15T00:54:21.982Z,96740.59
2022-11-15T00:56:48.580Z,96737.06
2022-11-15T00:59:15.197Z,96734.34
2022-11-15T01:01:41.803Z,96731.59
2022-11-15T01:04:08.412Z,96726.97
2022-11-15T01:06:35.015Z,96725.34
2022-11-15T01:09:01.655Z,96730.78
2022-11-15T01:11:28.265Z,96733.50
2022-11-15T01:13:55.599Z,96730.78
2022-11-15T01:16:22.209Z,96724.53
2022-11-15T01:18:48.863Z,96727.25
2022-11-15T01:21:17.243Z,96719.91
2022-11-15T01:23:43.882Z,96721.78
2022-11-15T01:26:12.874Z,96715.53
2022-11-15T01:28:40.170Z,96706.53
2022-11-15T01:31:10.069Z,96709.25
2022-11-15T01:33:36.676Z,96710.09
2022-11-15T01:36:07.217Z,96698.38
2022-11-15T01:38:33.959Z,96697.53
2022-11-15T01:41:00.559Z,96692.91
2022-11-15T01:43:33.846Z,96687.72
2022-11-15T01:46:07.051Z,96679.31
2022-11-15T01:48:34.419Z,96671.41
2022-11-15T01:51:01.741Z,96663.22
2022-11-15T01:53:28.529Z,96671.41
2022-11-15T01:55:55.329Z,96670.56
2022-11-15T01:58:21.937Z,96673.28
2022-11-15T02:00:48.619Z,96660.50
2022-11-15T02:03:15.255Z,96655.06
2022-11-15T02:05:41.878Z,96666.78
2022-11-15T02:08:09.085Z,96664.03
2022-11-15T02:10:35.720Z,96653.97
2022-11-15T02:13:02.324Z,96654.22
2022-11-15T02:15:32.333Z,96657.78
2022-11-15T02:18:07.052Z,96650.69
2022-11-15T02:20:39.569Z,96641.69
2022-11-15T02:23:14.325Z,96646.31
2022-11-15T02:25:40.886Z,96644.16
2022-11-15T02:28:13.237Z,96637.06
2022-11-15T02:30:43.894Z,96628.09
2022-11-15T02:33:43.373Z,96620.75
2022-11-15T02:36:16.590Z,96617.19
2022-11-15T02:38:52.217Z,96609.84
2022-11-15T02:41:23.840Z,96603.56
2022-11-15T02:43:55.891Z,96609.03
2022-11-15T02:46:23.978Z,96592.69
2022-11-15T02:48:50.953Z,96592.69
2022-11-15T02:51:17.572Z,96584.53
2022-11-15T02:53:44.225Z,96585.34
2022-11-15T02:56:10.832Z,96570.91
2022-11-15T02:59:02.205Z,96573.63
2022-11-15T03:01:34.802Z,96569.00
2022-11-15T03:04:18.645Z,96571.72
2022-11-15T03:07:00.481Z,96578.25
2022-11-15T03:09:46.328Z,96570.91
2022-11-15T03:12:34.206Z,96567.63
2022-11-15T03:15:14.294Z,96573.88
2022-11-15T03:17:50.265Z,96572.81
2022-11-15T03:20:17.103Z,96575.53
2022-11-15T03:22:45.191Z,96570.34
2022-11-15T03:25:13.856Z,96570.91
2022-11-15T03:27:48.569Z,96551.84
2022-11-15T03:30:15.183Z,96555.38
2022-11-15T03:32:47.236Z,96561.91
2022-11-15T03:35:15.612Z,96556.72
2022-11-15T03:37:42.076Z,96565.72
2022-11-15T03:40:09.044Z,96552.09
2022-11-15T03:42:47.698Z,96548.56
2022-11-15T03:45:28.143Z,96555.88
2022-11-15T03:48:03.705Z,96559.44
2022-11-15T03:50:30.305Z,96547.72
2022-11-15T03:52:56.901Z,96546.88
2022-11-15T03:55:23.519Z,96532.22
2022-11-15T03:57:54.737Z,96536.00
2022-11-15T04:00:21.342Z,96527.00
2022-11-15T04:02:47.961Z,96525.09
2022-11-15T04:05:14.571Z,96511.50
2022-11-15T04:07:41.177Z,96506.03
2022-11-15T04:10:09.168Z,96505.22
2022-11-15T04:12:37.431Z,96497.88
2022-11-15T04:15:07.871Z,96493.50
2022-11-15T04:17:50.677Z,96494.34
2022-11-15T04:20:22.146Z,96498.13
2022-11-15T04:22:48.749Z,96484.53
2022-11-15T04:25:18.422Z,96483.72
2022-11-15T04:27:47.264Z,96479.09
2022-11-15T04:30:13.864Z,96480.16
2022-11-15T04:32:40.472Z,96480.97
2022-11-15T04:35:07.249Z,96482.63
2022-11-15T04:37:33.846Z,96488.88
2022-11-15T04:40:00.458Z,96483.44
2022-11-15T04:42:27.058Z,96486.16
2022-11-15T04:44:53.664Z,96485.34
2022-11-15T04:47:20.284Z,96488.66
2022-11-15T04:49:46.908Z,96485.09
2022-11-15T04:52:13.511Z,96490.78
2022-11-15T04:54:40.431Z,96490.78
2022-11-15T04:57:07.038Z,96497.66
2022-11-15T04:59:33.652Z,96502.00
2022-11-15T05:02:00.269Z,96506.13
2022-11-15T05:04:27.104Z,96500.41
2022-11-15T05:06:53.783Z,96503.94
2022-11-15T05:09:20.594Z,96488.69
2022-11-15T05:11:47.273Z,96491.41
2022-11-15T05:14:14.019Z,96504.78
2022-11-15T05:16:40.670Z,96502.31
2022-11-15T05:19:07.340Z,96494.97
2022-11-15T05:21:33.963Z,96496.88
2022-11-15T05:24:00.577Z,96491.16
2022-11-15T05:26:27.190Z,96497.94
2022-11-15T05:28:54.829Z,96492.75
2022-11-15T05:31:21.456Z,96492.50
2022-11-15T05:33:48.090Z,96487.06
2022-11-15T05:36:18.794Z,96483.81
2022-11-15T05:38:46.680Z,96481.41
2022-11-15T05:41:13.288Z,96488.72
2022-11-15T05:43:39.930Z,96494.19
2022-11-15T05:46:06.542Z,96476.47
2022-11-15T05:48:35.495Z,96504.03
2022-11-15T05:51:02.116Z,96509.97
2022-11-15T05:53:28.963Z,96506.41
2022-11-15T05:55:55.749Z,96508.31
2022-11-15T05:58:22.349Z,96502.06
2022-11-15T06:00:48.963Z,96501.22
2022-11-15T06:03:15.578Z,96498.50
2022-11-15T06:05:42.182Z,96503.69
2022-11-15T06:08:08.890Z,96499.88
2022-11-15T06:10:35.495Z,96505.34
2022-11-15T06:13:03.532Z,96499.41
2022-11-15T06:15:30.152Z,96495.84
2022-11-15T06:17:59.506Z,96499.41
2022-11-15T06:20:29.623Z,96487.09
2022-11-15T06:23:04.225Z,96489.00
2022-11-15T06:25:30.932Z,96492.53
2022-11-15T06:27:58.216Z,96482.47
2022-11-15T06:30:25.256Z,96480.81
2022-11-15T06:32:51.970Z,96480.81
2022-11-15T06:35:18.637Z,96477.28
2022-11-15T06:37:45.262Z,96472.91
2022-11-15T06:40:12.202Z,96478.38
2022-11-15T06:42:38.802Z,96478.38
2022-11-15T06:45:06.051Z,96474.81
2022-11-15T06:47:32.667Z,96477.53
2022-11-15T06:49:59.287Z,96479.44
2022-11-15T06:52:25.916Z,96483.00
2022-11-15T06:54:52.525Z,96480.53
2022-11-15T06:57:19.151Z,96475.09
2022-11-15T06:59:45.764Z,96452.47
2022-11-15T07:02:15.395Z,96443.50
2022-11-15T07:04:42.011Z,96448.94
2022-11-15T07:07:08.664Z,96457.94
2022-11-15T07:09:35.286Z,96470.72
2022-11-15T07:12:07.329Z,96467.19
2022-11-15T07:14:34.408Z,96456.28
2022-11-15T07:17:01.017Z,96450.03
2022-11-15T07:19:27.649Z,96450.84
2022-11-15T07:21:54.298Z,96460.91
2022-11-15T07:24:20.912Z,96466.34
2022-11-15T07:26:47.512Z,96469.06
2022-11-15T07:29:14.379Z,96467.44
2022-11-15T07:31:40.992Z,96468.25
2022-11-15T07:34:07.603Z,96480.22
2022-11-15T07:36:34.227Z,96479.97
2022-11-15T07:39:00.842Z,96487.31
2022-11-15T07:41:27.477Z,96496.56
2022-11-15T07:43:54.190Z,96500.13
2022-11-15T07:46:20.808Z,96498.22
2022-11-15T07:48:47.428Z,96506.38
2022-11-15T07:51:14.865Z,96497.66
2022-11-15T07:53:42.628Z,96502.00
2022-11-15T07:56:09.264Z,96497.38
2022-11-15T07:58:37.028Z,96493.84
2022-11-15T08:01:07.506Z,96485.94
2022-11-15T08:03:34.651Z,96466.88
2022-11-15T08:06:01.514Z,96458.72
2022-11-15T08:08:28.227Z,96441.53
2022-11-15T08:10:54.843Z,96440.69
2022-11-15T08:13:21.505Z,96430.63
2022-11-15T08:15:51.037Z,96421.66
2022-11-15T08:18:20.087Z,96402.84
2022-11-15T08:20:46.701Z,96394.41
2022-11-15T08:23:13.329Z,96390.06
2022-11-15T08:25:40.034Z,96400.69
2022-11-15T08:28:07.411Z,96397.97
2022-11-15T08:30:38.336Z,96402.59
2022-11-15T08:33:04.941Z,96393.59
2022-11-15T08:35:31.545Z,96378.09
2022-11-15T08:37:58.154Z,96390.06
2022-11-15T08:40:24.929Z,96399.88
2022-11-15T08:42:51.569Z,96408.03
2022-11-15T08:45:18.190Z,96422.47
2022-11-15T08:47:47.427Z,96426.84
2022-11-15T08:50:17.904Z,96423.31
2022-11-15T08:52:44.510Z,96417.88
2022-11-15T08:55:11.115Z,96410.53
2022-11-15T08:57:37.735Z,96396.91
2022-11-15T09:00:04.779Z,96402.34
2022-11-15T09:02:31.407Z,96395.25
2022-11-15T09:04:58.029Z,96398.81
2022-11-15T09:07:24.926Z,96391.47
2022-11-15T09:09:51.615Z,96390.38
2022-11-15T09:12:18.229Z,96393.09
2022-11-15T09:14:44.914Z,96395.25
2022-11-15T09:17:11.517Z,96395.81
2022-11-15T09:19:38.137Z,96395.00
2022-11-15T09:22:07.258Z,96387.91
2022-11-15T09:24:33.871Z,96395.81
2022-11-15T09:27:00.473Z,96382.22
2022-11-15T09:29:27.133Z,96391.47
2022-11-15T09:31:53.965Z,96374.31
2022-11-15T09:34:20.598Z,96374.31
2022-11-15T09:36:47.453Z,96373.47
2022-11-15T09:39:14.077Z,96369.91
2022-11-15T09:42:02.931Z,96374.31
2022-11-15T09:44:54.160Z,96378.09
2022-11-15T09:47:56.399Z,96379.16
2022-11-15T09:50:35.400Z,96381.06
2022-11-15T09:53:02.016Z,96383.53
2022-11-15T09:55:54.554Z,96385.44
2022-11-15T09:58:44.575Z,96374.53
2022-11-15T10:01:21.105Z,96371.00
2022-11-15T10:03:47.748Z,96371.00
2022-11-15T10:06:24.937Z,96375.34
2022-11-15T10:08:58.348Z,96375.34
2022-11-15T10:11:42.231Z,96369.91
2022-11-15T10:14:14.254Z,96364.47
2022-11-15T10:16:51.032Z,96365.28
2022-11-15T10:20:08.477Z,96354.66
2022-11-15T10:22:45.260Z,96348.13
2022-11-15T10:25:28.404Z,96359.03
2022-11-15T10:27:59.154Z,96356.56
2022-11-15T10:30:32.356Z,96360.09
2022-11-15T10:32:59.019Z,96356.31
2022-11-15T10:35:30.022Z,96353.59
2022-11-15T10:38:09.143Z,96348.13
2022-11-15T10:40:35.968Z,96353.59
2022-11-15T10:43:11.450Z,96338.91
2022-11-15T10:45:38.098Z,96329.06
2022-11-15T10:48:13.560Z,96325.31
2022-11-15T10:50:46.613Z,96320.91
2022-11-15T10:53:34.583Z,96303.75
2022-11-15T10:56:07.176Z,96296.41
2022-11-15T10:58:44.285Z,96306.25
2022-11-15T11:01:21.055Z,96299.94
2022-11-15T11:04:07.431Z,96295.34
2022-11-15T11:06:57.822Z,96293.69
2022-11-15T11:09:40.202Z,96289.91
2022-11-15T11:12:10.155Z,96286.34
2022-11-15T11:14:37.789Z,96287.19
2022-11-15T11:17:15.757Z,96276.28
2022-11-15T11:20:03.997Z,96277.13
2022-11-15T11:22:54.440Z,96266.22
2022-11-15T11:25:31.082Z,96270.59
2022-11-15T11:28:13.401Z,96268.13
2022-11-15T11:30:54.039Z,96267.88
2022-11-15T11:33:39.886Z,96266.22
2022-11-15T11:36:22.754Z,96259.69
2022-11-15T11:38:56.020Z,96258.06
2022-11-15T11:41:47.419Z,96249.88
2022-11-15T11:44:33.599Z,96253.66
2022-11-15T11:47:16.048Z,96246.34
2022-11-15T11:49:42.507Z,96233.78
2022-11-15T11:52:19.627Z,96229.16
2022-11-15T11:54:58.450Z,96222.66
2022-11-15T11:57:26.877Z,96224.56
2022-11-15T12:00:25.070Z,96216.41
2022-11-15T12:03:10.627Z,96211.78
2022-11-15T12:05:45.446Z,96200.06
2022-11-15T12:08:20.882Z,96209.28
2022-11-15T12:10:49.407Z,96204.66
2022-11-15T12:13:17.849Z,96193.78
2022-11-15T12:15:46.417Z,96190.00
2022-11-15T12:18:14.599Z,96189.19
2022-11-15T12:20:43.535Z,96188.91
2022-11-15T12:23:18.976Z,96186.19
2022-11-15T12:25:55.979Z,96176.38
2022-11-15T12:29:05.995Z,96181.56
2022-11-15T12:31:45.183Z,96172.56
2022-11-15T12:34:36.061Z,96167.13
2022-11-15T12:37:02.677Z,96165.22
2022-11-15T12:40:04.574Z,96159.78
2022-11-15T12:42:31.072Z,96168.22
2022-11-15T12:44:57.963Z,96161.69
2022-11-15T12:47:26.443Z,96156.25
2022-11-15T12:49:53.226Z,96147.81
2022-11-15T12:52:20.100Z,96145.34
2022-11-15T12:54:51.941Z,96130.09
2022-11-15T12:57:28.757Z,96132.81
2022-11-15T12:59:57.297Z,96123.56
2022-11-15T13:02:36.292Z,96124.66
2022-11-15T13:05:15.081Z,96119.75
2022-11-15T13:07:41.644Z,96116.22
2022-11-15T13:10:11.216Z,96110.78
2022-11-15T13:12:43.548Z,96114.31
2022-11-15T13:15:13.010Z,96115.13
2022-11-15T13:17:40.790Z,96103.41
2022-11-15T13:20:07.260Z,96106.16
2022-11-15T13:22:50.021Z,96092.53
2022-11-15T13:25:19.503Z,96093.34
2022-11-15T13:27:49.354Z,96101.50
2022-11-15T13:30:29.076Z,96082.47
2022-11-15T13:32:55.736Z,96077.00
2022-11-15T13:35:26.119Z,96075.09
2022-11-15T13:37:53.109Z,96078.66
2022-11-15T13:40:21.496Z,96078.66
2022-11-15T13:42:48.172Z,96073.19
2022-11-15T13:45:16.248Z,96063.41
2022-11-15T13:47:42.965Z,96055.22
2022-11-15T13:50:13.594Z,96056.88
2022-11-15T13:52:41.492Z,96054.41
2022-11-15T13:55:19.660Z,96052.50
2022-11-15T13:57:49.390Z,96048.97
2022-11-15T14:00:38.508Z,96062.59
2022-11-15T14:03:27.630Z,96062.59
2022-11-15T14:06:05.390Z,96064.50
2022-11-15T14:08:32.328Z,96071.56
2022-11-15T14:11:17.990Z,96057.94
2022-11-15T14:14:10.070Z,96049.78
2022-11-15T14:16:41.993Z,96048.16
2022-11-15T14:19:12.316Z,96057.13
2022-11-15T14:21:38.949Z,96052.50
2022-11-15T14:24:18.846Z,96052.50
2022-11-15T14:26:45.452Z,96036.19
2022-11-15T14:29:28.709Z,96028.00
2022-11-15T14:32:06.543Z,96036.19
2022-11-15T14:34:33.535Z,96027.19
2022-11-15T14:37:00.142Z,96022.56
2022-11-15T14:39:26.739Z,96017.13
2022-11-15T14:41:53.345Z,96008.94
2022-11-15T14:44:19.948Z,96006.22
2022-11-15T14:46:46.546Z,96015.22
2022-11-15T14:49:13.168Z,96009.75
2022-11-15T14:51:39.829Z,95996.16
2022-11-15T14:54:06.447Z,95989.06
2022-11-15T14:56:33.056Z,95983.34
2022-11-15T14:58:59.691Z,95985.25
2022-11-15T15:01:26.642Z,95984.44
2022-11-15T15:03:53.676Z,95998.88
2022-11-15T15:06:20.388Z,95993.44
2022-11-15T15:08:47.124Z,95990.72
2022-11-15T15:11:29.575Z,95976.28
2022-11-15T15:13:56.182Z,95964.56
2022-11-15T15:16:22.797Z,95964.56
2022-11-15T15:18:49.507Z,95964.31
2022-11-15T15:21:23.901Z,95956.41
2022-11-15T15:23:50.616Z,95943.63
2022-11-15T15:26:17.284Z,95954.50
2022-11-15T15:28:43.914Z,95943.63
2022-11-15T15:31:10.741Z,95943.63
2022-11-15T15:33:37.748Z,95943.63
2022-11-15T15:36:04.494Z,95930.81
2022-11-15T15:38:31.533Z,95927.00
2022-11-15T15:40:58.391Z,95926.19
2022-11-15T15:43:24.990Z,95917.19
2022-11-15T15:45:51.598Z,95919.94
2022-11-15T15:48:18.326Z,95909.84
2022-11-15T15:50:44.969Z,95903.31
2022-11-15T15:53:11.935Z,95903.31
2022-11-15T15:55:38.557Z,95904.41
2022-11-15T15:58:05.596Z,95908.22
2022-11-15T16:00:32.205Z,95906.31
2022-11-15T16:02:58.807Z,95898.16
2022-11-15T16:05:25.431Z,95892.16
2022-11-15T16:07:52.145Z,95897.31
2022-11-15T16:10:21.663Z,95891.88
2022-11-15T16:12:48.381Z,95880.19
2022-11-15T16:15:15.055Z,95873.09
2022-11-15T16:17:55.092Z,95874.19
2022-11-15T16:20:42.451Z,95873.38
2022-11-15T16:23:13.471Z,95878.53
2022-11-15T16:25:42.770Z,95875.81
2022-11-15T16:28:34.615Z,95872.53
2022-11-15T16:31:11.157Z,95868.75
2022-11-15T16:33:37.820Z,95862.22
2022-11-15T16:36:26.978Z,95857.03
2022-11-15T16:38:56.393Z,95857.03
2022-11-15T16:41:23.006Z,95846.16
2022-11-15T16:43:49.611Z,95851.59
2022-11-15T16:46:22.704Z,95849.69
2022-11-15T16:48:49.307Z,95846.16
2022-11-15T16:51:16.047Z,95844.25
2022-11-15T16:53:42.737Z,95848.59
2022-11-15T16:56:18.975Z,95836.09
2022-11-15T16:58:45.578Z,95838.81
2022-11-15T17:01:27.758Z,95838.00
2022-11-15T17:03:54.537Z,95840.72
2022-11-15T17:06:21.405Z,95844.25
2022-11-15T17:08:48.191Z,95839.88
2022-11-15T17:11:15.801Z,95841.53
2022-11-15T17:13:42.403Z,95845.31
2022-11-15T17:16:13.185Z,95839.88
2022-11-15T17:18:40.044Z,95848.88
2022-11-15T17:21:17.341Z,95841.53
2022-11-15T17:23:43.979Z,95853.47
2022-11-15T17:26:28.929Z,95850.75
2022-11-15T17:28:56.524Z,95853.47
2022-11-15T17:31:23.213Z,95849.94
2022-11-15T17:33:49.837Z,95856.19
2022-11-15T17:36:16.447Z,95857.03
2022-11-15T17:38:43.073Z,95852.94
2022-11-15T17:41:13.616Z,95857.59
2022-11-15T17:43:40.414Z,95845.59
2022-11-15T17:46:09.031Z,95852.94
2022-11-15T17:48:35.648Z,95855.13
2022-11-15T17:51:04.227Z,95860.81
2022-11-15T17:53:37.212Z,95861.84
2022-11-15T17:56:04.639Z,95862.38
2022-11-15T17:58:32.091Z,95864.53
2022-11-15T18:01:09.104Z,95850.97
2022-11-15T18:03:36.782Z,95849.91
2022-11-15T18:06:06.553Z,95839.81
2022-11-15T18:08:33.397Z,95837.94
2022-11-15T18:11:10.421Z,95830.03
2022-11-15T18:13:37.580Z,95813.97
2022-11-15T18:16:05.305Z,95824.34
2022-11-15T18:18:32.741Z,95819.44
2022-11-15T18:21:11.293Z,95811.00
2022-11-15T18:23:38.011Z,95808.00
2022-11-15T18:26:05.383Z,95802.28
2022-11-15T18:28:33.594Z,95805.81
2022-11-15T18:31:00.725Z,95793.84
2022-11-15T18:33:27.937Z,95810.97
2022-11-15T18:36:05.302Z,95815.34
2022-11-15T18:38:31.943Z,95816.19
2022-11-15T18:41:01.118Z,95823.28
2022-11-15T18:43:28.181Z,95826.81
2022-11-15T18:45:54.790Z,95824.34
2022-11-15T18:48:21.417Z,95830.38
2022-11-15T18:50:50.415Z,95830.38
2022-11-15T18:53:18.718Z,95822.19
2022-11-15T18:55:45.330Z,95824.91
2022-11-15T18:58:11.945Z,95824.91
2022-11-15T19:00:38.589Z,95823.00
2022-11-15T19:03:05.235Z,95824.63
2022-11-15T19:05:31.842Z,95821.09
2022-11-15T19:07:58.517Z,95830.09
2022-11-15T19:10:25.605Z,95821.91
2022-11-15T19:12:52.203Z,95819.19
2022-11-15T19:15:18.818Z,95817.56
2022-11-15T19:17:45.417Z,95821.91
2022-11-15T19:20:12.027Z,95809.41
2022-11-15T19:22:38.629Z,95809.13
2022-11-15T19:25:05.389Z,95807.50
2022-11-15T19:27:36.895Z,95807.22
2022-11-15T19:30:04.931Z,95803.97
2022-11-15T19:32:31.533Z,95793.06
2022-11-15T19:34:58.138Z,95799.31
2022-11-15T19:37:24.751Z,95796.59
2022-11-15T19:39:51.373Z,95793.59
2022-11-15T19:42:17.995Z,95783.81
2022-11-15T19:44:44.603Z,95787.34
2022-11-15T19:47:11.229Z,95787.06
2022-11-15T19:49:37.874Z,95792.50
2022-11-15T19:52:04.764Z,95778.91
2022-11-15T19:54:31.403Z,95788.69
2022-11-15T19:56:58.015Z,95789.25
2022-11-15T19:59:24.635Z,95791.41
2022-11-15T20:01:51.233Z,95785.97
2022-11-15T20:04:17.858Z,95779.44
2022-11-15T20:06:44.463Z,95773.19
2022-11-15T20:09:14.869Z,95781.06
2022-11-15T20:11:41.497Z,95771.00
2022-11-15T20:14:08.103Z,95762.31
2022-11-15T20:16:34.729Z,95756.31
2022-11-15T20:19:01.394Z,95753.03
2022-11-15T20:21:28.021Z,95751.13
2022-11-15T20:23:54.641Z,95742.66
2022-11-15T20:26:21.287Z,95740.78
2022-11-15T20:28:48.256Z,95738.88
2022-11-15T20:31:15.072Z,95718.16
2022-11-15T20:33:41.721Z,95715.44
2022-11-15T20:36:13.387Z,95704.53
2022-11-15T20:38:40.007Z,95706.22
2022-11-15T20:41:06.622Z,95710.56
2022-11-15T20:43:33.243Z,95716.81
2022-11-15T20:45:59.879Z,95714.09
2022-11-15T20:48:26.919Z,95713.81
2022-11-15T20:51:06.455Z,95720.06
2022-11-15T20:53:33.122Z,95731.22
2022-11-15T20:56:10.209Z,95735.56
2022-11-15T20:58:37.008Z,95735.84
2022-11-15T21:01:05.092Z,95748.66
2022-11-15T21:03:31.862Z,95758.72
2022-11-15T21:05:58.705Z,95747.31
2022-11-15T21:08:25.338Z,95763.63
2022-11-15T21:10:52.415Z,95745.94
2022-11-15T21:13:19.031Z,95750.03
2022-11-15T21:15:45.666Z,95752.75
2022-11-15T21:18:12.286Z,95748.38
2022-11-15T21:20:39.027Z,95742.13
2022-11-15T21:23:05.665Z,95737.78
2022-11-15T21:25:33.206Z,95744.31
2022-11-15T21:27:59.866Z,95753.56
2022-11-15T21:30:26.560Z,95751.66
2022-11-15T21:32:53.192Z,95755.22
2022-11-15T21:35:19.835Z,95763.38
2022-11-15T21:37:47.822Z,95762.56
2022-11-15T21:40:16.418Z,95766.38
2022-11-15T21:42:43.045Z,95771.81
2022-11-15T21:45:10.079Z,95773.72
2022-11-15T21:47:36.707Z,95765.56
2022-11-15T21:50:03.375Z,95762.03
2022-11-15T21:52:29.999Z,95769.38
2022-11-15T21:54:56.627Z,95774.81
2022-11-15T21:57:23.250Z,95766.66
2022-11-15T21:59:49.872Z,95762.31
2022-11-15T22:02:16.508Z,95762.31
2022-11-15T22:04:43.128Z,95764.75
2022-11-15T22:07:09.784Z,95768.28
2022-11-15T22:09:36.680Z,95760.13
2022-11-15T22:12:03.331Z,95765.56
2022-11-15T22:14:29.969Z,95760.13
2022-11-15T22:16:56.607Z,95765.56
2022-11-15T22:19:23.227Z,95764.75
2022-11-15T22:21:49.870Z,95759.59
2022-11-15T22:24:16.488Z,95768.56
2022-11-15T22:26:43.103Z,95759.84
2022-11-15T22:29:09.727Z,95767.75
2022-11-15T22:31:36.350Z,95766.94
2022-11-15T22:34:03.478Z,95775.91
2022-11-15T22:36:42.454Z,95758.75
2022-11-15T22:39:16.747Z,95763.41
2022-11-15T22:41:43.377Z,95766.94
2022-11-15T22:44:09.995Z,95764.50
2022-11-15T22:46:36.620Z,95758.19
2022-11-15T22:49:03.709Z,95762.31
2022-11-15T22:51:30.355Z,95761.75
2022-11-15T22:53:57.010Z,95761.75
2022-11-15T22:56:23.642Z,95759.03
2022-11-15T22:58:50.257Z,95747.31
2022-11-15T23:01:20.833Z,95737.28
2022-11-15T23:03:47.547Z,95715.50
2022-11-15T23:06:14.215Z,95694.78
2022-11-15T23:08:41.215Z,95691.25
2022-11-15T23:11:09.963Z,95706.47
2022-11-15T23:13:36.641Z,95721.19
2022-11-15T23:16:09.379Z,95722.81
2022-11-15T23:18:38.852Z,95741.06
2022-11-15T23:21:13.196Z,95740.00
2022-11-15T23:23:39.818Z,95707.56
2022-11-15T23:26:06.531Z,95697.50
2022-11-15T23:28:33.702Z,95698.59
2022-11-15T23:31:07.339Z,95696.69
2022-11-15T23:33:33.957Z,95699.69
2022-11-15T23:36:00.622Z,95686.88
2022-11-15T23:38:27.249Z,95678.72
2022-11-15T23:40:54.240Z,95689.59
2022-11-15T23:43:23.860Z,95691.53
2022-11-15T23:45:50.490Z,95702.13
2022-11-15T23:48:17.140Z,95700.50
2022-11-15T23:50:46.055Z,95708.66
2022-11-15T23:53:12.680Z,95709.47
2022-11-15T23:55:39.322Z,95707.56
2022-11-15T23:58:05.959Z,95707.56
